createdAt,value
2023-06-29T00:01:53.426Z,17.53
2023-06-29T00:04:27.445Z,17.49
2023-06-29T00:06:58.202Z,17.46
2023-06-29T00:09:28.777Z,17.42
2023-06-29T00:12:01.900Z,17.41
2023-06-29T00:14:32.393Z,17.37
2023-06-29T00:17:02.919Z,17.40
2023-06-29T00:19:33.449Z,17.40
2023-06-29T00:22:03.968Z,17.33
2023-06-29T00:24:35.488Z,17.31
2023-06-29T00:27:09.556Z,17.28
2023-06-29T00:29:40.177Z,17.22
2023-06-29T00:32:12.879Z,17.23
2023-06-29T00:34:43.594Z,17.22
2023-06-29T00:37:14.357Z,17.17
2023-06-29T00:39:44.866Z,17.15
2023-06-29T00:42:18.131Z,17.19
2023-06-29T00:44:49.650Z,17.17
2023-06-29T00:47:21.330Z,17.07
2023-06-29T00:49:51.912Z,17.09
2023-06-29T00:52:22.804Z,17.05
2023-06-29T00:54:53.028Z,17.02
2023-06-29T00:57:26.481Z,16.97
2023-06-29T01:00:00.870Z,16.96
2023-06-29T01:02:33.517Z,16.90
2023-06-29T01:05:06.294Z,16.85
2023-06-29T01:07:41.747Z,16.76
2023-06-29T01:10:15.441Z,16.72
2023-06-29T01:12:50.407Z,16.71
2023-06-29T01:15:21.633Z,16.71
2023-06-29T01:17:55.787Z,16.69
2023-06-29T01:20:28.154Z,16.65
2023-06-29T01:23:04.628Z,16.63
2023-06-29T01:25:39.539Z,16.61
2023-06-29T01:28:11.355Z,16.58
2023-06-29T01:30:50.052Z,16.58
2023-06-29T01:33:25.560Z,16.55
2023-06-29T01:36:04.425Z,16.56
2023-06-29T01:38:41.647Z,16.45
2023-06-29T01:41:17.121Z,16.44
2023-06-29T01:43:48.758Z,16.41
2023-06-29T01:46:20.167Z,16.44
2023-06-29T01:48:51.521Z,16.49
2023-06-29T01:51:22.373Z,16.45
2023-06-29T01:53:53.678Z,16.45
2023-06-29T01:56:26.837Z,16.47
2023-06-29T01:58:57.332Z,16.48
2023-06-29T02:01:27.927Z,16.49
2023-06-29T02:03:58.641Z,16.49
2023-06-29T02:06:29.424Z,16.46
2023-06-29T02:09:00.025Z,16.42
2023-06-29T02:11:33.318Z,16.42
2023-06-29T02:14:03.887Z,16.38
2023-06-29T02:16:34.683Z,16.38
2023-06-29T02:19:04.973Z,16.40
2023-06-29T02:21:37.229Z,16.35
2023-06-29T02:24:08.917Z,16.32
2023-06-29T02:26:42.121Z,16.27
2023-06-29T02:29:12.745Z,16.24
2023-06-29T02:31:43.350Z,16.26
2023-06-29T02:34:14.008Z,16.32
2023-06-29T02:36:44.651Z,16.33
2023-06-29T02:39:18.744Z,16.32
2023-06-29T02:41:51.940Z,16.34
2023-06-29T02:44:22.579Z,16.33
2023-06-29T02:46:53.092Z,16.32
2023-06-29T02:49:23.706Z,16.31
2023-06-29T02:51:54.881Z,16.33
2023-06-29T02:54:25.620Z,16.33
2023-06-29T02:56:59.651Z,16.27
2023-06-29T02:59:31.993Z,16.26
2023-06-29T03:02:02.603Z,16.30
2023-06-29T03:04:33.270Z,16.26
2023-06-29T03:07:06.508Z,16.27
2023-06-29T03:09:38.547Z,16.23
2023-06-29T03:12:14.442Z,16.22
2023-06-29T03:14:44.957Z,16.23
2023-06-29T03:17:15.838Z,16.21
2023-06-29T03:19:46.391Z,16.18
2023-06-29T03:22:16.914Z,16.18
2023-06-29T03:24:47.411Z,16.17
2023-06-29T03:27:20.586Z,16.14
2023-06-29T03:29:55.566Z,16.12
2023-06-29T03:32:26.186Z,16.14
2023-06-29T03:34:56.720Z,16.19
2023-06-29T03:37:27.213Z,16.21
2023-06-29T03:39:57.733Z,16.23
2023-06-29T03:42:30.887Z,16.23
2023-06-29T03:45:01.432Z,16.25
2023-06-29T03:47:32.046Z,16.30
2023-06-29T03:50:02.599Z,16.27
2023-06-29T03:52:33.191Z,16.26
2023-06-29T03:55:03.872Z,16.29
2023-06-29T03:57:36.972Z,16.34
2023-06-29T04:00:09.178Z,16.41
2023-06-29T04:02:45.778Z,16.38
2023-06-29T04:05:16.317Z,16.32
2023-06-29T04:07:46.956Z,16.27
2023-06-29T04:10:17.593Z,16.23
2023-06-29T04:12:50.716Z,16.25
2023-06-29T04:15:21.230Z,16.25
2023-06-29T04:17:51.839Z,16.30
2023-06-29T04:20:22.630Z,16.35
2023-06-29T04:22:53.521Z,16.39
2023-06-29T04:25:24.062Z,16.40
2023-06-29T04:27:57.231Z,16.36
2023-06-29T04:30:27.910Z,16.38
2023-06-29T04:33:03.354Z,16.43
2023-06-29T04:35:33.930Z,16.44
2023-06-29T04:38:04.470Z,16.50
2023-06-29T04:40:35.045Z,16.54
2023-06-29T04:43:09.017Z,16.61
2023-06-29T04:45:42.453Z,16.57
2023-06-29T04:48:13.964Z,16.66
2023-06-29T04:50:44.445Z,16.76
2023-06-29T04:53:15.380Z,16.77
2023-06-29T04:55:46.324Z,16.80
2023-06-29T04:58:19.632Z,16.84
2023-06-29T05:00:50.262Z,16.89
2023-06-29T05:03:20.990Z,16.99
2023-06-29T05:05:51.577Z,17.00
2023-06-29T05:08:22.213Z,17.04
2023-06-29T05:10:53.250Z,17.08
2023-06-29T05:13:26.426Z,17.11
2023-06-29T05:15:57.651Z,17.27
2023-06-29T05:18:28.170Z,17.42
2023-06-29T05:20:59.020Z,17.50
2023-06-29T05:23:29.173Z,17.61
2023-06-29T05:25:59.934Z,17.73
2023-06-29T05:28:32.777Z,17.83
2023-06-29T05:31:03.523Z,17.96
2023-06-29T05:33:33.753Z,18.07
2023-06-29T05:36:04.441Z,18.18
2023-06-29T05:38:35.113Z,18.33
2023-06-29T05:41:06.772Z,18.45
2023-06-29T05:43:40.043Z,18.62
2023-06-29T05:46:10.760Z,18.77
2023-06-29T05:48:41.125Z,18.91
2023-06-29T05:51:11.683Z,19.06
2023-06-29T05:53:42.263Z,19.15
2023-06-29T05:56:12.814Z,19.29
2023-06-29T05:58:46.007Z,19.46
2023-06-29T06:01:16.673Z,19.59
2023-06-29T06:03:47.531Z,19.65
2023-06-29T06:06:18.251Z,19.76
2023-06-29T06:08:48.799Z,19.89
2023-06-29T06:11:19.561Z,20.03
2023-06-29T06:13:52.369Z,20.13
2023-06-29T06:16:23.110Z,20.18
2023-06-29T06:18:54.118Z,20.30
2023-06-29T06:21:25.286Z,20.45
2023-06-29T06:23:57.478Z,20.65
2023-06-29T06:26:28.154Z,20.72
2023-06-29T06:29:01.049Z,20.82
2023-06-29T06:31:34.223Z,20.81
2023-06-29T06:34:05.648Z,20.79
2023-06-29T06:36:36.437Z,21.00
2023-06-29T06:39:06.980Z,21.18
2023-06-29T06:41:37.761Z,21.40
2023-06-29T06:44:11.317Z,21.62
2023-06-29T06:46:41.994Z,21.77
2023-06-29T06:49:12.709Z,21.91
2023-06-29T06:51:43.028Z,21.92
2023-06-29T06:54:13.634Z,22.08
2023-06-29T06:56:43.869Z,22.13
2023-06-29T06:59:17.103Z,22.27
2023-06-29T07:01:47.862Z,22.41
2023-06-29T07:04:18.705Z,22.77
2023-06-29T07:06:49.980Z,23.01
2023-06-29T07:09:20.532Z,23.24
2023-06-29T07:11:51.475Z,23.37
2023-06-29T07:14:25.432Z,23.50
2023-06-29T07:16:57.082Z,23.64
2023-06-29T07:24:35.138Z,24.29
2023-06-29T07:27:05.836Z,24.46
2023-06-29T07:29:39.120Z,24.53
2023-06-29T07:32:12.014Z,24.39
2023-06-29T07:34:42.687Z,24.47
2023-06-29T07:37:13.221Z,24.75
2023-06-29T07:39:43.881Z,25.08
2023-06-29T07:42:20.914Z,25.28
2023-06-29T07:44:59.901Z,25.48
2023-06-29T07:47:30.624Z,25.51
2023-06-29T07:50:01.216Z,25.40
2023-06-29T07:52:32.346Z,25.50
2023-06-29T07:55:03.021Z,25.76
2023-06-29T08:00:12.670Z,26.08
2023-06-29T08:02:53.198Z,26.31
2023-06-29T08:07:58.115Z,26.64
2023-06-29T08:10:28.869Z,26.76
2023-06-29T08:13:03.723Z,26.97
2023-06-29T08:15:39.022Z,27.21
2023-06-29T08:18:09.753Z,27.42
2023-06-29T08:20:40.541Z,27.56
2023-06-29T08:23:11.396Z,27.81
2023-06-29T08:25:41.985Z,27.81
2023-06-29T08:28:12.658Z,27.87
2023-06-29T08:30:46.245Z,28.18
2023-06-29T08:33:16.876Z,28.34
2023-06-29T08:35:47.736Z,28.56
2023-06-29T08:38:18.163Z,28.48
2023-06-29T08:40:50.810Z,28.75
2023-06-29T08:43:22.863Z,29.02
2023-06-29T08:45:56.025Z,29.36
2023-06-29T08:48:27.821Z,29.73
2023-06-29T08:51:06.940Z,30.24
2023-06-29T08:53:38.316Z,30.59
2023-06-29T08:56:09.866Z,31.15
2023-06-29T08:58:41.575Z,31.71
2023-06-29T09:01:15.147Z,31.77
2023-06-29T09:03:45.980Z,31.69
2023-06-29T09:06:16.699Z,31.97
2023-06-29T09:08:47.638Z,32.33
2023-06-29T09:11:18.279Z,32.59
2023-06-29T09:13:49.106Z,32.72
2023-06-29T09:16:23.333Z,33.21
2023-06-29T09:18:55.711Z,31.64
2023-06-29T09:21:27.429Z,31.57
2023-06-29T09:24:01.927Z,31.18
2023-06-29T09:26:32.963Z,29.87
2023-06-29T09:29:05.062Z,30.38
2023-06-29T09:31:41.241Z,31.79
2023-06-29T09:34:21.770Z,32.56
2023-06-29T09:36:53.107Z,32.27
2023-06-29T09:39:24.876Z,32.56
2023-06-29T09:41:58.312Z,32.98
2023-06-29T09:44:30.383Z,33.59
2023-06-29T09:49:52.857Z,34.03
2023-06-29T09:52:23.602Z,34.19
2023-06-29T09:54:54.064Z,34.36
2023-06-29T09:57:28.232Z,34.25
2023-06-29T10:00:00.021Z,34.07
2023-06-29T10:02:33.419Z,33.98
2023-06-29T10:05:04.710Z,33.92
2023-06-29T10:07:37.467Z,34.49
2023-06-29T10:10:15.035Z,34.33
2023-06-29T10:12:46.010Z,33.82
2023-06-29T10:15:18.531Z,34.26
2023-06-29T10:18:00.294Z,34.44
2023-06-29T10:20:34.203Z,34.86
2023-06-29T10:23:08.869Z,35.08
2023-06-29T10:25:45.117Z,35.46
2023-06-29T10:28:17.832Z,35.21
2023-06-29T10:30:49.479Z,35.01
2023-06-29T10:33:28.066Z,34.06
2023-06-29T10:36:02.829Z,33.52
2023-06-29T10:38:36.061Z,33.77
2023-06-29T10:41:10.281Z,34.03
2023-06-29T10:43:59.492Z,34.47
2023-06-29T10:46:50.081Z,34.61
2023-06-29T10:49:30.701Z,34.83
2023-06-29T10:52:07.094Z,35.15
2023-06-29T10:54:37.761Z,35.57
2023-06-29T10:57:12.038Z,36.03
2023-06-29T10:59:43.371Z,35.37
2023-06-29T11:02:14.926Z,35.93
2023-06-29T11:04:48.396Z,36.36
2023-06-29T11:07:19.239Z,36.03
2023-06-29T11:09:49.785Z,36.49
2023-06-29T11:12:20.783Z,36.79
2023-06-29T11:17:47.175Z,37.62
2023-06-29T11:20:23.026Z,38.18
2023-06-29T11:22:53.755Z,38.37
2023-06-29T11:25:24.303Z,38.84
2023-06-29T11:27:57.001Z,39.42
2023-06-29T11:30:27.619Z,39.95
2023-06-29T11:32:58.527Z,39.92
2023-06-29T11:35:32.709Z,40.13
2023-06-29T11:38:04.563Z,40.24
2023-06-29T11:40:35.490Z,40.48
2023-06-29T11:43:06.193Z,39.45
2023-06-29T11:45:37.368Z,39.38
2023-06-29T11:48:08.852Z,39.31
2023-06-29T11:50:42.032Z,38.73
2023-06-29T11:53:13.586Z,39.09
2023-06-29T11:55:52.789Z,39.33
2023-06-29T11:58:22.927Z,39.71
2023-06-29T12:00:59.810Z,39.68
2023-06-29T12:03:30.948Z,39.90
2023-06-29T12:06:06.968Z,40.23
2023-06-29T12:08:46.969Z,40.38
2023-06-29T12:11:23.265Z,40.96
2023-06-29T12:13:53.849Z,41.16
2023-06-29T12:18:59.759Z,41.33
2023-06-29T12:21:38.152Z,42.03
2023-06-29T12:24:09.738Z,41.63
2023-06-29T12:26:40.319Z,41.05
2023-06-29T12:29:11.400Z,40.60
2023-06-29T12:31:42.299Z,40.40
2023-06-29T12:34:12.942Z,41.47
2023-06-29T12:36:46.864Z,42.00
2023-06-29T12:39:20.928Z,41.40
2023-06-29T12:41:51.891Z,41.91
2023-06-29T12:44:22.539Z,41.75
2023-06-29T12:46:53.266Z,40.02
2023-06-29T12:49:27.890Z,39.37
2023-06-29T12:52:01.284Z,39.46
2023-06-29T12:54:32.401Z,40.26
2023-06-29T12:57:03.514Z,39.69
2023-06-29T12:59:34.195Z,39.35
2023-06-29T13:02:06.198Z,39.08
2023-06-29T13:04:39.586Z,38.86
2023-06-29T13:07:13.295Z,39.15
2023-06-29T13:09:46.144Z,39.11
2023-06-29T13:12:17.385Z,38.81
2023-06-29T13:14:50.832Z,37.99
2023-06-29T13:17:21.448Z,37.03
2023-06-29T13:19:52.388Z,36.01
2023-06-29T13:22:27.031Z,35.98
2023-06-29T13:24:57.760Z,36.04
2023-06-29T13:27:28.337Z,36.10
2023-06-29T13:29:58.878Z,36.13
2023-06-29T13:32:29.497Z,36.11
2023-06-29T13:35:01.056Z,36.53
2023-06-29T13:37:34.193Z,37.77
2023-06-29T13:40:04.786Z,38.69
2023-06-29T13:42:35.329Z,39.13
2023-06-29T13:45:06.234Z,40.92
2023-06-29T13:47:36.798Z,42.09
2023-06-29T13:50:08.489Z,42.67
2023-06-29T13:52:41.656Z,41.19
2023-06-29T13:55:12.742Z,40.33
2023-06-29T13:57:43.253Z,38.94
2023-06-29T14:00:16.227Z,38.90
2023-06-29T14:02:46.868Z,40.34
2023-06-29T14:05:17.450Z,41.32
2023-06-29T14:07:50.621Z,41.73
2023-06-29T14:10:21.368Z,41.79
2023-06-29T14:12:51.963Z,42.21
2023-06-29T14:15:22.651Z,42.86
2023-06-29T14:17:53.548Z,41.51
2023-06-29T14:20:24.113Z,39.51
2023-06-29T14:22:57.196Z,39.09
2023-06-29T14:25:27.690Z,40.45
2023-06-29T14:27:58.198Z,41.10
2023-06-29T14:30:28.691Z,41.50
2023-06-29T14:32:59.441Z,41.30
2023-06-29T14:35:32.231Z,40.36
2023-06-29T14:38:13.327Z,40.17
2023-06-29T14:40:45.279Z,40.89
2023-06-29T14:43:15.996Z,41.02
2023-06-29T14:45:46.962Z,40.70
2023-06-29T14:48:17.722Z,40.11
2023-06-29T14:50:50.196Z,39.77
2023-06-29T14:53:23.807Z,39.57
2023-06-29T14:55:55.797Z,39.24
2023-06-29T14:58:26.369Z,39.14
2023-06-29T15:00:56.896Z,38.94
2023-06-29T15:03:27.563Z,38.85
2023-06-29T15:05:58.755Z,38.49
2023-06-29T15:08:31.893Z,38.35
2023-06-29T15:11:02.424Z,37.40
2023-06-29T15:13:33.949Z,36.29
2023-06-29T15:16:04.500Z,35.64
2023-06-29T15:18:43.360Z,35.16
2023-06-29T15:21:21.252Z,34.96
2023-06-29T15:23:54.454Z,34.63
2023-06-29T15:26:26.047Z,34.57
2023-06-29T15:28:56.901Z,34.07
2023-06-29T15:31:27.613Z,33.88
2023-06-29T15:33:58.704Z,33.72
2023-06-29T15:36:29.346Z,33.43
2023-06-29T15:39:03.763Z,32.93
2023-06-29T15:41:34.302Z,32.69
2023-06-29T15:44:06.806Z,32.18
2023-06-29T15:46:37.403Z,32.25
2023-06-29T15:49:07.990Z,32.24
2023-06-29T15:51:38.552Z,32.17
2023-06-29T15:54:11.706Z,31.89
2023-06-29T15:56:42.257Z,31.51
2023-06-29T15:59:12.787Z,31.25
2023-06-29T16:01:43.445Z,31.11
2023-06-29T16:04:17.316Z,30.98
2023-06-29T16:06:49.660Z,30.80
2023-06-29T16:09:22.760Z,30.66
2023-06-29T16:11:53.424Z,30.54
2023-06-29T16:14:23.943Z,30.44
2023-06-29T16:16:54.597Z,30.33
2023-06-29T16:19:25.368Z,30.21
2023-06-29T16:21:55.948Z,30.13
2023-06-29T16:24:29.186Z,30.05
2023-06-29T16:26:59.753Z,29.94
2023-06-29T16:29:30.433Z,29.91
2023-06-29T16:32:01.099Z,29.83
2023-06-29T16:34:31.673Z,29.75
2023-06-29T16:37:02.377Z,29.69
2023-06-29T16:39:35.612Z,29.67
2023-06-29T16:42:06.331Z,29.56
2023-06-29T16:44:37.029Z,29.53
2023-06-29T16:47:07.998Z,29.46
2023-06-29T16:49:38.590Z,29.35
2023-06-29T16:52:10.941Z,29.34
2023-06-29T16:54:44.172Z,29.31
2023-06-29T16:57:14.909Z,29.24
2023-06-29T16:59:45.544Z,29.20
2023-06-29T17:02:16.431Z,29.15
2023-06-29T17:04:47.030Z,29.03
2023-06-29T17:07:17.698Z,28.98
2023-06-29T17:09:50.892Z,28.96
2023-06-29T17:12:21.576Z,28.97
2023-06-29T17:14:52.367Z,28.96
2023-06-29T17:17:22.928Z,28.84
2023-06-29T17:19:53.721Z,28.82
2023-06-29T17:22:24.352Z,28.79
2023-06-29T17:24:57.586Z,28.79
2023-06-29T17:27:28.104Z,28.76
2023-06-29T17:29:58.633Z,28.71
2023-06-29T17:32:29.818Z,28.67
2023-06-29T17:35:00.793Z,28.61
2023-06-29T17:37:31.287Z,28.57
2023-06-29T17:40:04.712Z,28.49
2023-06-29T17:42:35.741Z,28.45
2023-06-29T17:45:07.325Z,28.41
2023-06-29T17:47:37.834Z,28.36
2023-06-29T17:50:10.468Z,28.29
2023-06-29T17:52:41.071Z,28.24
2023-06-29T17:55:14.578Z,28.18
2023-06-29T17:57:45.472Z,28.13
2023-06-29T18:00:18.470Z,28.04
2023-06-29T18:02:49.363Z,28.01
2023-06-29T18:05:20.118Z,27.96
2023-06-29T18:07:50.641Z,27.90
2023-06-29T18:10:24.349Z,27.85
2023-06-29T18:12:55.001Z,27.75
2023-06-29T18:15:26.306Z,27.71
2023-06-29T18:17:57.418Z,27.64
2023-06-29T18:20:28.240Z,27.57
2023-06-29T18:22:58.897Z,27.53
2023-06-29T18:25:32.191Z,27.47
2023-06-29T18:28:02.810Z,27.42
2023-06-29T18:30:33.576Z,27.36
2023-06-29T18:33:04.327Z,27.27
2023-06-29T18:35:34.948Z,27.22
2023-06-29T18:38:05.523Z,27.11
2023-06-29T18:40:38.656Z,27.05
2023-06-29T18:43:09.122Z,27.03
2023-06-29T18:45:39.758Z,26.96
2023-06-29T18:48:10.658Z,26.88
2023-06-29T18:50:41.350Z,26.79
2023-06-29T18:53:11.942Z,26.76
2023-06-29T18:55:45.605Z,26.69
2023-06-29T18:58:16.668Z,26.64
2023-06-29T19:00:47.564Z,26.59
2023-06-29T19:03:18.278Z,26.51
2023-06-29T19:05:49.342Z,26.45
2023-06-29T19:08:21.304Z,26.40
2023-06-29T19:10:56.139Z,26.31
2023-06-29T19:13:27.413Z,26.27
2023-06-29T19:16:00.286Z,26.18
2023-06-29T19:18:32.364Z,26.08
2023-06-29T19:21:03.192Z,26.00
2023-06-29T19:23:34.210Z,25.95
2023-06-29T19:26:07.434Z,25.89
2023-06-29T19:28:38.138Z,25.83
2023-06-29T19:31:08.744Z,25.78
2023-06-29T19:33:39.474Z,25.71
2023-06-29T19:36:10.216Z,25.66
2023-06-29T19:38:41.014Z,25.61
2023-06-29T19:41:14.629Z,25.55
2023-06-29T19:43:45.336Z,25.49
2023-06-29T19:46:16.119Z,25.44
2023-06-29T19:48:46.934Z,25.39
2023-06-29T19:51:17.781Z,25.34
2023-06-29T19:53:48.990Z,25.28
2023-06-29T19:56:22.488Z,25.24
2023-06-29T19:58:53.129Z,25.20
2023-06-29T20:01:23.736Z,25.15
2023-06-29T20:03:54.438Z,25.08
2023-06-29T20:06:25.534Z,25.04
2023-06-29T20:08:56.674Z,24.97
2023-06-29T20:11:29.959Z,24.88
2023-06-29T20:14:00.574Z,24.83
2023-06-29T20:16:31.334Z,24.81
2023-06-29T20:19:01.961Z,24.74
2023-06-29T20:21:32.645Z,24.72
2023-06-29T20:24:03.712Z,24.68
2023-06-29T20:26:37.887Z,24.61
2023-06-29T20:29:08.342Z,24.46
2023-06-29T20:31:38.855Z,24.34
2023-06-29T20:34:10.072Z,24.27
2023-06-29T20:36:40.769Z,24.21
2023-06-29T20:39:11.316Z,24.16
2023-06-29T20:41:47.827Z,24.07
2023-06-29T20:44:19.751Z,24.04
2023-06-29T20:46:50.987Z,23.99
2023-06-29T20:49:22.017Z,23.94
2023-06-29T20:51:54.567Z,23.87
2023-06-29T20:54:25.477Z,23.86
2023-06-29T20:56:58.536Z,23.80
2023-06-29T20:59:31.871Z,23.76
2023-06-29T21:02:04.350Z,23.71
2023-06-29T21:04:36.054Z,23.67
2023-06-29T21:07:07.014Z,23.62
2023-06-29T21:09:37.727Z,23.60
2023-06-29T21:12:13.348Z,23.62
2023-06-29T21:14:44.877Z,23.67
2023-06-29T21:17:16.616Z,23.65
2023-06-29T21:19:47.540Z,23.68
2023-06-29T21:22:19.189Z,23.70
2023-06-29T21:24:51.060Z,23.67
2023-06-29T21:27:24.815Z,23.70
2023-06-29T21:29:55.915Z,23.72
2023-06-29T21:32:28.874Z,23.72
2023-06-29T21:35:00.069Z,23.74
2023-06-29T21:37:31.510Z,23.73
2023-06-29T21:40:02.231Z,23.72
2023-06-29T21:42:35.715Z,23.71
2023-06-29T21:45:06.571Z,23.71
2023-06-29T21:47:37.102Z,23.75
2023-06-29T21:50:08.138Z,23.70
2023-06-29T21:52:38.669Z,23.70
2023-06-29T21:55:11.065Z,23.73
2023-06-29T21:57:50.010Z,23.77
2023-06-29T22:00:22.590Z,23.78
2023-06-29T22:02:53.943Z,23.78
2023-06-29T22:05:26.173Z,23.82
2023-06-29T22:07:56.495Z,23.75
2023-06-29T22:10:31.884Z,23.75
2023-06-29T22:13:05.433Z,23.74
2023-06-29T22:15:38.477Z,23.70
2023-06-29T22:18:09.140Z,23.72
2023-06-29T22:20:39.752Z,23.72
2023-06-29T22:23:10.008Z,23.68
2023-06-29T22:25:40.597Z,23.68
2023-06-29T22:28:14.221Z,23.69
2023-06-29T22:30:44.859Z,23.68
2023-06-29T22:33:15.511Z,23.71
2023-06-29T22:35:46.741Z,23.70
2023-06-29T22:38:17.506Z,23.71
2023-06-29T22:40:47.746Z,23.69
2023-06-29T22:43:21.156Z,23.71
2023-06-29T22:45:51.994Z,23.73
2023-06-29T22:48:23.090Z,23.73
2023-06-29T22:50:56.837Z,23.76
2023-06-29T22:53:27.663Z,23.74
2023-06-29T22:55:58.512Z,23.73
2023-06-29T22:58:31.677Z,23.77
2023-06-29T23:01:02.181Z,23.78
2023-06-29T23:03:32.467Z,23.75
2023-06-29T23:06:03.904Z,23.77
2023-06-29T23:08:37.572Z,23.77
2023-06-29T23:11:08.974Z,23.75
2023-06-29T23:13:42.117Z,23.78
2023-06-29T23:16:14.146Z,23.78
2023-06-29T23:18:44.764Z,23.77
2023-06-29T23:21:16.712Z,23.74
2023-06-29T23:23:47.684Z,23.72
2023-06-29T23:26:20.591Z,23.71
2023-06-29T23:28:55.747Z,23.70
2023-06-29T23:31:26.481Z,23.66
2023-06-29T23:33:57.041Z,23.70
2023-06-29T23:36:27.249Z,23.69
2023-06-29T23:38:58.676Z,23.70
2023-06-29T23:41:30.855Z,23.70
2023-06-29T23:44:06.881Z,23.69
2023-06-29T23:46:46.160Z,23.73
2023-06-29T23:49:19.534Z,23.70
2023-06-29T23:51:50.730Z,23.69
2023-06-29T23:54:21.530Z,23.68
2023-06-29T23:56:52.942Z,23.67
2023-06-29T23:59:26.105Z,23.66
